Time;durP1;ratioP1;P1;durP2;ratioP2;P2;SDS_P1;SDS_P2;PMS_P1;PMS_P2;Temp;Humidity;BMP_temperature;BMP_pressure;BME280_temperature;BME280_humidity;BME280_pressure;Samples;Min_cycle;Max_cycle;Signal;HPM_P1;HPM_P2
2024/01/13 00:02:17;;;;;;;19.13;8.52;;;2.60;99.90;;;2.37;100.00;102277.69;5238896;28;20049;-47
2024/01/13 00:04:51;;;;;;;22.60;8.88;;;2.60;99.90;;;2.38;100.00;102279.47;5237527;28;20057;-47
2024/01/13 00:07:23;;;;;;;25.75;10.93;;;2.60;99.90;;;2.39;100.00;102284.75;5238433;28;20045;-46
2024/01/13 00:09:56;;;;;;;19.00;7.03;;;2.70;99.90;;;2.39;100.00;102271.91;5237763;28;20053;-47
2024/01/13 00:12:28;;;;;;;19.83;8.52;;;2.70;99.90;;;2.39;100.00;102266.75;5236486;28;20431;-46
2024/01/13 00:15:04;;;;;;;16.40;6.30;;;2.70;99.90;;;2.39;100.00;102271.91;5236416;28;20143;-47
2024/01/13 00:17:37;;;;;;;21.25;8.90;;;2.70;99.90;;;2.37;100.00;102265.72;5229615;28;20495;-47
2024/01/13 00:20:12;;;;;;;17.70;6.97;;;2.70;99.90;;;2.39;100.00;102268.41;5237364;28;20102;-47
2024/01/13 00:22:47;;;;;;;19.55;8.48;;;2.70;99.90;;;2.38;100.00;102269.19;5239196;28;20032;-47
2024/01/13 00:25:22;;;;;;;25.33;8.75;;;2.70;99.90;;;2.36;100.00;102271.63;5230983;28;20099;-47
2024/01/13 00:27:55;;;;;;;16.63;7.30;;;2.60;99.90;;;2.34;100.00;102268.00;5237006;28;20045;-46
2024/01/13 00:30:27;;;;;;;17.40;6.82;;;2.60;99.90;;;2.33;100.00;102261.03;5240071;28;20054;-47
2024/01/13 00:33:00;;;;;;;18.88;7.43;;;2.60;99.90;;;2.33;100.00;102253.31;5229258;28;20048;-47
2024/01/13 00:35:33;;;;;;;17.33;7.05;;;2.60;99.90;;;2.32;100.00;102248.94;5240597;28;20098;-47
2024/01/13 00:38:06;;;;;;;20.52;6.93;;;2.60;99.90;;;2.33;100.00;102248.19;5233471;28;20076;-47
2024/01/13 00:40:38;;;;;;;18.60;7.18;;;2.60;99.90;;;2.35;100.00;102250.91;5243259;28;20076;-46
2024/01/13 00:43:10;;;;;;;28.52;8.50;;;2.60;99.90;;;2.35;100.00;102249.25;5238440;28;20044;-46
2024/01/13 00:45:43;;;;;;;19.75;6.95;;;2.60;99.90;;;2.34;100.00;102242.25;5239987;28;20049;-46
2024/01/13 00:48:15;;;;;;;21.60;8.10;;;2.60;99.90;;;2.35;100.00;102238.94;5236108;28;20048;-47
2024/01/13 00:50:49;;;;;;;23.92;8.70;;;2.60;99.90;;;2.36;100.00;102235.59;5238006;28;20379;-46
2024/01/13 00:53:21;;;;;;;21.05;8.48;;;2.60;99.90;;;2.37;100.00;102239.97;5237371;28;20044;-46
2024/01/13 00:55:54;;;;;;;18.58;6.88;;;2.60;99.90;;;2.39;100.00;102237.53;5248188;28;20411;-47
2024/01/13 00:58:26;;;;;;;21.30;8.15;;;2.60;99.90;;;2.41;100.00;102228.28;5236776;28;20064;-46
2024/01/13 01:00:59;;;;;;;17.80;8.35;;;2.70;99.90;;;2.42;100.00;102219.81;5232578;28;20098;-47
2024/01/13 01:03:32;;;;;;;20.83;9.07;;;2.70;99.90;;;2.41;100.00;102221.47;5246164;28;20138;-47
2024/01/13 01:06:06;;;;;;;15.70;7.32;;;2.70;99.90;;;2.41;100.00;102213.75;5239468;28;20652;-47
2024/01/13 01:08:38;;;;;;;23.20;8.80;;;2.70;99.90;;;2.43;100.00;102217.38;5256939;28;20060;-47
2024/01/13 01:11:13;;;;;;;22.75;6.80;;;2.70;99.90;;;2.43;100.00;102217.38;5234054;28;154363;-47
2024/01/13 01:13:45;;;;;;;12.15;5.65;;;2.70;99.90;;;2.43;100.00;102214.78;5242135;28;20041;-47
2024/01/13 01:16:17;;;;;;;18.75;6.95;;;2.70;99.90;;;2.43;100.00;102207.06;5235992;28;20072;-46
2024/01/13 01:18:52;;;;;;;26.20;8.27;;;2.70;99.90;;;2.43;100.00;102212.22;5236698;28;20411;-46
2024/01/13 01:21:29;;;;;;;29.85;8.73;;;2.70;99.90;;;2.44;100.00;102213.13;5250433;28;20575;-47
2024/01/13 01:24:01;;;;;;;21.75;6.85;;;2.70;99.90;;;2.44;100.00;102207.97;5236642;28;20415;-47
2024/01/13 01:26:33;;;;;;;20.35;8.18;;;2.70;99.90;;;2.42;100.00;102210.41;5238644;28;20056;-47
2024/01/13 01:29:06;;;;;;;22.73;6.90;;;2.70;99.90;;;2.44;100.00;102211.44;5225583;28;20500;-47
2024/01/13 01:31:38;;;;;;;23.13;8.23;;;2.70;99.90;;;2.44;100.00;102208.88;5229214;28;20049;-47
2024/01/13 01:34:10;;;;;;;15.43;7.28;;;2.70;99.90;;;2.44;100.00;102198.56;5244413;28;20055;-45
2024/01/13 01:36:44;;;;;;;17.55;6.88;;;2.70;99.90;;;2.44;100.00;102200.25;5230167;28;20056;-47
2024/01/13 01:39:19;;;;;;;21.15;6.00;;;2.70;99.90;;;2.44;100.00;102198.56;5237215;28;20053;-45
2024/01/13 01:41:51;;;;;;;;;;;2.70;99.90;;;2.45;100.00;102202.94;5241065;28;20114;-46
2024/01/13 01:44:24;;;;;;;20.05;6.97;;;2.70;99.90;;;2.45;100.00;102200.38;5246646;28;19924;-47
2024/01/13 01:46:59;;;;;;;17.65;6.07;;;2.70;99.90;;;2.45;100.00;102187.50;5244946;28;20140;-47
2024/01/13 01:49:31;;;;;;;18.73;7.05;;;2.70;99.90;;;2.45;100.00;102187.50;5245289;28;20044;-47
2024/01/13 01:52:06;;;;;;;29.17;7.25;;;2.70;99.90;;;2.46;100.00;102190.97;5245510;28;20045;-47
2024/01/13 01:54:39;;;;;;;16.67;7.45;;;2.70;99.90;;;2.43;100.00;102196.78;5241365;28;20072;-46
2024/01/13 01:57:16;;;;;;;16.38;7.05;;;2.70;99.90;;;2.43;100.00;102199.34;5243360;28;20044;-47
2024/01/13 01:59:49;;;;;;;22.25;8.00;;;2.70;99.90;;;2.40;100.00;102187.84;5230682;28;20088;-46
2024/01/13 02:02:21;;;;;;;24.85;6.32;;;2.70;99.90;;;2.40;100.00;102185.28;5234173;28;20048;-47
2024/01/13 02:04:55;;;;;;;12.88;5.30;;;2.70;99.90;;;2.41;100.00;102185.44;5237086;28;20045;-47
2024/01/13 02:07:29;;;;;;;16.63;6.57;;;2.70;99.90;;;2.38;100.00;102187.72;5243434;28;20055;-46
2024/01/13 02:10:03;;;;;;;20.52;6.38;;;2.70;99.90;;;2.37;100.00;102190.19;5239790;28;20051;-46
2024/01/13 02:12:35;;;;;;;16.70;6.93;;;2.60;99.90;;;2.35;100.00;102187.47;5248620;28;20152;-46
2024/01/13 02:15:09;;;;;;;29.77;8.30;;;2.60;99.90;;;2.33;100.00;102181.25;5247000;28;20054;-47
2024/01/13 02:17:42;;;;;;;22.50;6.93;;;2.60;99.90;;;2.34;100.00;102184.75;5247368;28;20053;-47
2024/01/13 02:20:14;;;;;;;16.73;5.95;;;2.60;99.90;;;2.34;100.00;102177.91;5242268;28;20377;-47
2024/01/13 02:22:48;;;;;;;19.80;8.70;;;2.60;99.90;;;2.35;100.00;102178.84;5234945;28;20056;-47
2024/01/13 02:25:23;;;;;;;16.98;5.75;;;2.60;99.90;;;2.35;100.00;102179.75;5240132;28;20076;-47
2024/01/13 02:27:56;;;;;;;13.75;5.03;;;2.60;99.90;;;2.37;100.00;102185.94;5233310;28;20052;-47
2024/01/13 02:30:28;;;;;;;25.10;6.80;;;2.60;99.90;;;2.38;100.00;102187.72;5248913;28;20589;-47
2024/01/13 02:33:00;;;;;;;15.90;6.53;;;2.60;99.90;;;2.39;100.00;102176.66;5231105;28;20053;-47
2024/01/13 02:35:35;;;;;;;17.40;6.90;;;2.60;99.90;;;2.38;100.00;102174.88;5232751;28;20447;-47
2024/01/13 02:38:09;;;;;;;17.02;7.10;;;2.60;99.90;;;2.38;100.00;102167.13;5241349;28;20051;-47
2024/01/13 02:40:42;;;;;;;25.35;6.45;;;2.60;99.90;;;2.38;100.00;102167.13;5236029;28;20147;-47
2024/01/13 02:43:14;;;;;;;16.92;7.30;;;2.60;99.90;;;2.38;100.00;102162.00;5241887;28;20137;-46
2024/01/13 02:45:46;;;;;;;23.40;7.45;;;2.60;99.90;;;2.37;100.00;102157.63;5239926;28;20055;-46
2024/01/13 02:48:19;;;;;;;17.77;6.35;;;2.60;99.90;;;2.36;100.00;102163.53;5243344;28;20056;-48
2024/01/13 02:51:00;;;;;;;17.00;6.57;;;2.60;99.90;;;2.37;100.00;102161.88;5234980;28;20071;-47
2024/01/13 02:53:37;;;;;;;14.57;6.15;;;2.60;99.90;;;2.38;100.00;102146.56;5244227;28;20052;-47
2024/01/13 02:56:09;;;;;;;16.42;6.82;;;2.60;99.90;;;2.38;100.00;102141.41;5239454;28;20037;-47
2024/01/13 02:58:42;;;;;;;24.00;6.60;;;2.70;99.90;;;2.39;100.00;102148.34;5235165;28;20052;-47
2024/01/13 03:01:15;;;;;;;11.85;6.38;;;2.70;99.90;;;2.41;100.00;102141.69;5238393;28;20051;-47
2024/01/13 03:03:50;;;;;;;18.52;6.65;;;2.70;99.90;;;2.43;100.00;102134.09;5228040;28;20056;-46
2024/01/13 03:06:26;;;;;;;18.50;7.60;;;2.70;99.90;;;2.40;100.00;102127.00;5231690;28;20132;-47
2024/01/13 03:09:00;;;;;;;19.63;7.18;;;2.70;99.90;;;2.36;100.00;102116.31;5240693;28;20072;-46
2024/01/13 03:11:32;;;;;;;13.38;5.75;;;2.70;99.90;;;2.36;100.00;102122.34;5244854;28;20401;-47
2024/01/13 03:14:05;;;;;;;15.25;6.40;;;2.70;99.90;;;2.35;100.00;102120.56;5242012;28;20504;-47
2024/01/13 03:16:37;;;;;;;17.38;6.50;;;2.70;99.90;;;2.36;100.00;102112.06;5243931;28;20045;-46
2024/01/13 03:19:09;;;;;;;20.13;6.53;;;2.70;99.90;;;2.36;100.00;102106.91;5241854;28;20036;-46
2024/01/13 03:21:42;;;;;;;16.70;6.95;;;2.70;99.90;;;2.35;100.00;102099.97;5236180;28;20048;-47
2024/01/13 03:24:15;;;;;;;23.02;7.63;;;2.70;99.90;;;2.38;100.00;102104.47;5242327;28;20377;-46
2024/01/13 03:26:48;;;;;;;23.98;8.27;;;2.70;99.90;;;2.39;100.00;102106.28;5243647;28;20106;-46
2024/01/13 03:29:20;;;;;;;19.90;7.15;;;2.70;99.90;;;2.39;100.00;102107.16;5239686;28;20055;-45
2024/01/13 03:31:52;;;;;;;17.65;7.40;;;2.70;99.90;;;2.41;100.00;102112.44;5236179;28;20068;-46
2024/01/13 03:34:25;;;;;;;18.08;6.05;;;2.70;99.90;;;2.41;100.00;102110.81;5235711;28;20056;-46
2024/01/13 03:36:57;;;;;;;17.90;7.13;;;2.70;99.90;;;2.41;100.00;102108.22;5247454;28;20048;-46
2024/01/13 03:39:31;;;;;;;21.55;6.63;;;2.70;99.90;;;2.42;100.00;102115.19;5239084;28;20055;-47
2024/01/13 03:42:03;;;;;;;15.63;7.10;;;2.70;99.90;;;2.42;100.00;102107.47;5226938;28;20634;-47
2024/01/13 03:44:36;;;;;;;16.52;6.13;;;2.70;99.90;;;2.40;100.00;102098.69;5238264;28;20060;-47
2024/01/13 03:47:08;;;;;;;18.30;5.85;;;2.70;99.90;;;2.39;100.00;102103.69;5242302;28;20049;-47
2024/01/13 03:49:40;;;;;;;15.80;6.05;;;2.70;99.90;;;2.38;100.00;102089.94;5234073;28;20049;-47
2024/01/13 03:52:13;;;;;;;19.58;5.93;;;2.70;99.90;;;2.37;100.00;102075.25;5221483;28;20048;-47
2024/01/13 03:54:47;;;;;;;14.38;5.18;;;2.60;99.90;;;2.38;100.00;102074.50;5239649;28;20056;-47
2024/01/13 03:57:19;;;;;;;14.98;5.70;;;2.70;99.90;;;2.37;100.00;102067.53;5237066;28;20052;-47
2024/01/13 03:59:51;;;;;;;11.32;5.78;;;2.70;99.90;;;2.38;100.00;102069.34;5231449;28;20392;-47
2024/01/13 04:02:25;;;;;;;17.85;5.65;;;2.70;99.90;;;2.40;100.00;102066.91;5231249;28;20045;-47
2024/01/13 04:04:57;;;;;;;14.82;6.32;;;2.70;99.90;;;2.40;100.00;102065.22;5238269;28;20452;-46
2024/01/13 04:07:29;;;;;;;17.30;6.63;;;2.70;99.90;;;2.39;100.00;102065.09;5240928;28;20461;-46
2024/01/13 04:10:04;;;;;;;22.45;7.15;;;2.70;99.90;;;2.39;100.00;102062.53;5242938;28;20052;-46
2024/01/13 04:12:36;;;;;;;20.20;7.30;;;2.70;99.90;;;2.39;100.00;102055.69;5233682;28;20128;-46
2024/01/13 04:15:11;;;;;;;17.50;7.13;;;2.70;99.90;;;2.34;100.00;102046.66;5241975;28;20053;-46
2024/01/13 04:17:43;;;;;;;19.05;6.38;;;2.70;99.90;;;2.34;100.00;102049.25;5234810;28;20693;-47
2024/01/13 04:20:16;;;;;;;10.93;6.47;;;2.70;99.90;;;2.35;100.00;102053.66;5238761;28;20060;-47
2024/01/13 04:22:48;;;;;;;17.63;7.15;;;2.70;99.90;;;2.36;100.00;102052.88;5240520;28;20053;-47
2024/01/13 04:25:22;;;;;;;16.70;6.47;;;2.70;99.90;;;2.39;100.00;102047.06;5239776;28;20048;-46
2024/01/13 04:27:54;;;;;;;12.45;5.60;;;2.70;99.90;;;2.40;100.00;102039.47;5226632;28;20044;-47
2024/01/13 04:30:27;;;;;;;20.17;5.75;;;2.70;99.90;;;2.41;100.00;102042.97;5240207;28;20060;-46
2024/01/13 04:32:59;;;;;;;14.05;6.13;;;2.70;99.90;;;2.41;100.00;102036.16;5241521;28;20524;-47
2024/01/13 04:35:32;;;;;;;13.32;6.10;;;2.70;99.90;;;2.41;100.00;102041.31;5240363;28;20061;-47
2024/01/13 04:38:05;;;;;;;15.23;5.90;;;2.70;99.90;;;2.43;100.00;102042.34;5227672;28;20419;-47
2024/01/13 04:40:38;;;;;;;13.82;5.97;;;2.70;99.90;;;2.44;100.00;102038.09;5238621;28;20052;-46
2024/01/13 04:43:11;;;;;;;16.90;5.45;;;2.70;99.90;;;2.43;100.00;102041.44;5238643;28;20049;-46
2024/01/13 04:45:43;;;;;;;14.63;6.00;;;2.70;99.90;;;2.42;100.00;102045.69;5228628;28;20525;-46
2024/01/13 04:48:17;;;;;;;13.35;5.63;;;2.70;99.90;;;2.44;100.00;102032.94;5232801;28;20056;-48
2024/01/13 04:50:50;;;;;;;11.55;5.28;;;2.70;99.90;;;2.45;100.00;102039.91;5230224;28;20049;-46
2024/01/13 04:53:22;;;;;;;11.13;4.90;;;2.70;99.90;;;2.48;100.00;102028.94;5226885;28;20123;-47
2024/01/13 04:55:57;;;;;;;10.73;3.90;;;2.70;99.90;;;2.51;100.00;102029.22;5238665;28;20072;-46
2024/01/13 04:58:30;;;;;;;12.10;5.07;;;2.70;99.90;;;2.52;100.00;102031.94;5246622;28;20071;-46
2024/01/13 05:01:02;;;;;;;14.98;4.63;;;2.80;99.90;;;2.52;100.00;102031.94;5236730;28;20041;-46
2024/01/13 05:03:35;;;;;;;7.78;3.72;;;2.80;99.90;;;2.53;100.00;102028.59;5245133;28;20037;-47
2024/01/13 05:06:08;;;;;;;13.48;5.63;;;2.80;99.90;;;2.54;100.00;102029.47;5240761;28;20049;-46
2024/01/13 05:08:41;;;;;;;13.80;5.57;;;2.80;99.90;;;2.56;100.00;102027.97;5236103;28;20056;-46
2024/01/13 05:11:14;;;;;;;13.27;4.00;;;2.80;99.90;;;2.56;100.00;102021.13;5239413;28;20060;-46
2024/01/13 05:13:47;;;;;;;11.20;5.65;;;2.80;99.90;;;2.57;100.00;102022.03;5240439;28;20523;-47
2024/01/13 05:16:19;;;;;;;12.45;4.75;;;2.80;99.90;;;2.58;100.00;102017.00;5243689;28;20049;-46
2024/01/13 05:18:51;;;;;;;14.38;6.00;;;2.80;99.90;;;2.60;100.00;102019.72;5241153;28;20064;-46
2024/01/13 05:21:24;;;;;;;11.88;5.32;;;2.80;99.90;;;2.60;100.00;102023.19;5251951;28;20712;-47
2024/01/13 05:23:56;;;;;;;12.80;6.05;;;2.80;99.90;;;2.61;100.00;102027.59;5240744;28;20048;-47
2024/01/13 05:26:30;;;;;;;9.15;4.72;;;2.90;99.90;;;2.60;100.00;102024.84;5237622;28;20407;-47
2024/01/13 05:29:02;;;;;;;16.05;5.65;;;2.80;99.90;;;2.58;100.00;102021.25;5237596;28;20103;-46
2024/01/13 05:31:35;;;;;;;16.85;5.45;;;2.80;99.90;;;2.57;100.00;102012.63;5243966;28;20512;-46
2024/01/13 05:34:07;;;;;;;14.38;5.57;;;2.80;99.90;;;2.57;100.00;102004.91;5244068;28;20048;-47
2024/01/13 05:36:39;;;;;;;15.93;5.18;;;2.80;99.90;;;2.60;100.00;102012.00;5232413;28;20067;-47
2024/01/13 05:39:12;;;;;;;15.27;6.30;;;2.80;99.90;;;2.61;100.00;102007.00;5230487;28;20045;-46
2024/01/13 05:41:46;;;;;;;11.43;4.47;;;2.90;99.90;;;2.64;100.00;102001.19;5234866;28;20114;-47
2024/01/13 05:44:18;;;;;;;13.20;4.85;;;2.90;99.90;;;2.63;100.00;101995.16;5244489;28;20545;-47
2024/01/13 05:46:51;;;;;;;14.45;5.20;;;2.90;99.90;;;2.64;100.00;101998.63;5239350;28;20045;-47
2024/01/13 05:49:24;;;;;;;8.70;4.13;;;2.90;99.90;;;2.64;100.00;101996.03;5242801;28;20045;-47
2024/01/13 05:51:59;;;;;;;13.07;4.40;;;2.90;99.90;;;2.66;100.00;101986.78;5238033;28;20178;-47
2024/01/13 05:54:31;;;;;;;;;;;2.90;99.90;;;2.66;100.00;101994.50;5238263;28;20412;-47
2024/01/13 05:57:05;;;;;;;7.05;3.92;;;2.90;99.90;;;2.67;100.00;101991.13;5228941;28;19931;-47
2024/01/13 05:59:38;;;;;;;11.63;4.47;;;2.90;99.90;;;2.66;100.00;101997.06;5239103;28;20049;-46
2024/01/13 06:02:10;;;;;;;13.75;4.38;;;2.90;99.90;;;2.66;100.00;101994.50;5244648;28;20057;-46
2024/01/13 06:04:42;;;;;;;7.05;4.15;;;2.90;99.90;;;2.64;100.00;101998.63;5237287;28;20048;-47
2024/01/13 06:07:15;;;;;;;13.20;4.68;;;2.90;99.90;;;2.63;100.00;102008.03;5228758;28;20442;-46
2024/01/13 06:09:47;;;;;;;11.35;4.72;;;2.90;99.90;;;2.60;100.00;102000.00;5249049;28;20049;-47
2024/01/13 06:12:22;;;;;;;10.07;4.07;;;2.90;99.90;;;2.60;100.00;101999.13;5249409;28;20052;-46
2024/01/13 06:14:55;;;;;;;13.63;4.55;;;2.80;99.90;;;2.59;100.00;101994.75;5236718;28;20052;-47
2024/01/13 06:17:27;;;;;;;12.63;5.57;;;2.80;99.90;;;2.60;100.00;101993.97;5250670;28;20061;-47
2024/01/13 06:20:03;;;;;;;14.52;5.90;;;2.90;99.90;;;2.62;100.00;101997.59;5244873;28;20051;-47
2024/01/13 06:22:36;;;;;;;11.60;5.22;;;2.90;99.90;;;2.64;100.00;101996.03;5241173;28;20419;-47
2024/01/13 06:25:08;;;;;;;11.02;5.85;;;2.90;99.90;;;2.66;100.00;101999.66;5241579;28;20657;-46
2024/01/13 06:27:42;;;;;;;11.68;4.40;;;2.90;99.90;;;2.68;100.00;101992.97;5230557;28;20057;-47
2024/01/13 06:30:15;;;;;;;12.50;4.70;;;2.90;99.90;;;2.69;100.00;101997.34;5244956;28;20052;-46
2024/01/13 06:32:47;;;;;;;10.45;5.13;;;2.90;99.90;;;2.70;100.00;101992.31;5231805;28;20052;-46
2024/01/13 06:35:20;;;;;;;10.63;5.18;;;3.00;99.90;;;2.72;100.00;101997.59;5235981;28;20475;-47
2024/01/13 06:37:52;;;;;;;11.88;5.03;;;3.00;99.90;;;2.72;100.00;101982.16;5238139;28;20056;-48
2024/01/13 06:40:25;;;;;;;15.63;5.13;;;3.00;99.90;;;2.74;100.00;101978.03;5241484;28;20052;-46
2024/01/13 06:42:58;;;;;;;10.02;4.70;;;3.00;99.90;;;2.74;100.00;101978.03;5237077;28;20041;-46
2024/01/13 06:45:31;;;;;;;13.55;6.40;;;3.00;99.90;;;2.76;100.00;101980.75;5202791;28;20448;-47
2024/01/13 06:48:04;;;;;;;9.95;3.83;;;3.00;99.90;;;2.76;100.00;101973.91;5245654;28;20754;-47
2024/01/13 06:50:36;;;;;;;13.38;5.00;;;3.00;99.90;;;2.78;100.00;101971.47;5239162;28;20407;-46
2024/01/13 06:53:08;;;;;;;11.27;4.68;;;3.00;99.90;;;2.76;100.00;101966.19;5243020;28;20049;-46
2024/01/13 06:55:41;;;;;;;16.83;4.85;;;3.00;99.90;;;2.76;100.00;101963.63;5244681;28;20094;-46
2024/01/13 06:58:15;;;;;;;12.55;4.55;;;3.00;99.90;;;2.76;100.00;101971.34;5244676;28;20053;-46
2024/01/13 07:00:47;;;;;;;10.60;4.72;;;3.00;99.90;;;2.77;100.00;101968.00;5245646;28;20093;-46
2024/01/13 07:03:20;;;;;;;10.73;4.78;;;3.00;99.90;;;2.78;100.00;101974.94;5241676;28;20045;-46
2024/01/13 07:05:55;;;;;;;12.45;4.75;;;3.00;99.90;;;2.79;100.00;101975.84;5241932;28;20068;-46
2024/01/13 07:08:28;;;;;;;10.15;5.28;;;3.00;99.90;;;2.82;100.00;101981.25;5243053;28;20124;-46
2024/01/13 07:11:00;;;;;;;9.93;5.07;;;3.00;99.90;;;2.82;100.00;101974.44;5242222;28;20045;-46
2024/01/13 07:13:34;;;;;;;12.75;5.00;;;3.00;99.90;;;2.83;100.00;101963.34;5244586;28;20040;-46
2024/01/13 07:16:06;;;;;;;13.13;4.45;;;3.00;99.90;;;2.86;100.00;101962.69;5239480;28;20052;-47
2024/01/13 07:18:39;;;;;;;14.85;5.40;;;3.10;99.90;;;2.86;100.00;101961.03;5242793;28;20052;-46
2024/01/13 07:21:11;;;;;;;11.00;4.35;;;3.10;99.90;;;2.88;100.00;101966.31;5233200;28;20045;-46
2024/01/13 07:23:44;;;;;;;13.60;5.22;;;3.10;99.90;;;2.89;100.00;101965.56;5244524;28;20054;-46
2024/01/13 07:26:19;;;;;;;11.35;4.70;;;3.10;99.90;;;2.90;100.00;101964.78;5245241;28;20052;-45
2024/01/13 07:28:53;;;;;;;;;;;3.10;99.90;;;2.90;100.00;101963.09;5237427;28;20056;-46
2024/01/13 07:31:25;;;;;;;7.55;3.72;;;3.10;99.90;;;2.91;100.00;101956.28;5239998;28;19928;-45
2024/01/13 07:33:58;;;;;;;10.27;4.90;;;3.10;99.90;;;2.92;100.00;101945.19;5211752;28;20045;-47
2024/01/13 07:36:30;;;;;;;12.38;5.20;;;3.10;99.90;;;2.92;100.00;101937.47;5203526;28;20455;-46
2024/01/13 07:39:02;;;;;;;9.93;5.05;;;3.10;99.90;;;2.90;100.00;101934.75;5230947;28;20059;-47
2024/01/13 07:41:35;;;;;;;12.05;5.20;;;3.10;99.90;;;2.91;100.00;101935.66;5233891;28;20045;-46
2024/01/13 07:44:12;;;;;;;14.57;5.88;;;3.10;99.90;;;2.90;100.00;101932.19;5245097;28;20072;-46
2024/01/13 07:46:44;;;;;;;12.88;5.78;;;3.10;99.90;;;2.90;100.00;101934.75;5244112;28;20064;-46
2024/01/13 07:49:17;;;;;;;14.02;6.60;;;3.20;99.90;;;2.92;100.00;101933.22;5247354;28;20048;-46
2024/01/13 07:51:54;;;;;;;16.90;5.72;;;3.20;99.90;;;2.94;100.00;101936.84;5241797;28;20152;-47
2024/01/13 07:54:26;;;;;;;13.20;5.20;;;3.20;99.90;;;2.95;100.00;101927.44;5245429;28;20053;-48
2024/01/13 07:56:58;;;;;;;12.18;4.95;;;3.20;99.90;;;2.95;100.00;101923.19;5237643;28;20056;-46
2024/01/13 07:59:32;;;;;;;12.02;6.22;;;3.20;99.90;;;2.95;100.00;101927.44;5252199;28;20053;-47
2024/01/13 08:02:05;;;;;;;11.07;6.22;;;3.20;99.90;;;2.97;100.00;101921.63;5227439;28;20044;-47
2024/01/13 08:04:37;;;;;;;16.65;5.85;;;3.20;99.90;;;2.98;100.00;101920.84;5231647;28;20499;-47
2024/01/13 08:07:09;;;;;;;11.10;6.25;;;3.20;99.90;;;3.01;100.00;101909.00;5233983;28;20041;-47
2024/01/13 08:09:42;;;;;;;13.85;5.57;;;3.30;99.90;;;3.03;100.00;101903.19;5241203;28;20044;-47
2024/01/13 08:12:14;;;;;;;16.73;6.35;;;3.30;99.90;;;3.04;100.00;101907.56;5237637;28;20056;-47
2024/01/13 08:14:48;;;;;;;13.65;6.47;;;3.30;99.90;;;3.06;100.00;101890.56;5244507;28;20029;-46
2024/01/13 08:17:20;;;;;;;15.02;5.80;;;3.30;99.90;;;3.06;100.00;101876.78;5237983;28;20059;-46
2024/01/13 08:19:53;;;;;;;11.75;5.78;;;3.30;99.90;;;3.06;100.00;101876.78;5241157;28;20045;-46
2024/01/13 08:22:29;;;;;;;10.77;5.50;;;3.30;99.90;;;3.07;100.00;101870.88;5243367;28;20054;-46
2024/01/13 08:25:01;;;;;;;13.57;6.13;;;3.30;99.90;;;3.08;100.00;101852.06;5241418;28;20048;-46
2024/01/13 08:27:34;;;;;;;10.77;5.70;;;3.30;99.90;;;3.12;100.00;101839.53;5245008;28;20060;-46
2024/01/13 08:30:09;;;;;;;15.40;5.88;;;3.30;99.90;;;3.11;100.00;101837.72;5243955;28;20049;-47
2024/01/13 08:32:41;;;;;;;;;;;3.40;99.90;;;3.14;100.00;101831.94;5237869;28;20095;-46
2024/01/13 08:35:14;;;;;;;11.43;5.20;;;3.40;99.90;;;3.16;100.00;101851.00;5226560;28;19971;-46
2024/01/13 08:37:47;;;;;;;12.20;4.88;;;3.40;99.90;;;3.15;100.00;101865.56;5241901;28;20045;-45
2024/01/13 08:40:19;;;;;;;14.20;6.55;;;3.40;99.90;;;3.16;100.00;101858.72;5247445;28;20543;-46
2024/01/13 08:42:52;;;;;;;12.68;6.60;;;3.30;99.90;;;3.17;100.00;101851.13;5246685;28;20305;-45
2024/01/13 08:45:29;;;;;;;14.93;5.70;;;3.40;99.90;;;3.18;100.00;101857.16;5244663;28;20044;-45
2024/01/13 08:48:02;;;;;;;14.27;5.28;;;3.50;99.90;;;3.20;100.00;101827.28;5242938;28;20095;-46
2024/01/13 08:50:34;;;;;;;13.90;5.75;;;3.40;99.90;;;3.23;100.00;101830.09;5243713;28;20495;-46
2024/01/13 08:53:07;;;;;;;10.32;4.97;;;3.50;99.90;;;3.22;100.00;101836.03;5247738;28;20052;-46
2024/01/13 08:55:39;;;;;;;16.92;5.32;;;3.40;99.90;;;3.31;100.00;101846.16;5253276;28;20512;-47
2024/01/13 08:58:11;;;;;;;13.30;5.85;;;3.50;99.90;;;3.49;100.00;101843.38;5252262;28;20052;-46
2024/01/13 09:00:45;;;;;;;14.63;6.45;;;3.70;99.90;;;3.48;100.00;101828.69;5245965;28;20407;-46
2024/01/13 09:03:17;;;;;;;12.88;6.72;;;3.70;99.90;;;3.45;100.00;101833.59;5245414;28;20052;-46
2024/01/13 09:05:50;;;;;;;14.45;5.68;;;3.70;99.90;;;3.44;100.00;101831.81;5241695;28;20454;-46
2024/01/13 09:08:25;;;;;;;12.00;5.38;;;3.70;99.90;;;3.43;100.00;101840.31;5243040;28;20555;-46
2024/01/13 09:10:57;;;;;;;14.63;5.55;;;3.70;99.90;;;3.41;100.00;101834.16;5230581;28;20048;-45
2024/01/13 09:13:30;;;;;;;9.20;4.63;;;3.70;99.90;;;3.41;100.00;101818.69;5243858;28;20395;-45
2024/01/13 09:16:04;;;;;;;11.82;6.63;;;3.70;99.90;;;3.41;100.00;101803.22;5231711;28;20049;-46
2024/01/13 09:18:36;;;;;;;12.25;5.15;;;3.70;99.90;;;3.42;100.00;101794.69;5238880;28;20503;-46
2024/01/13 09:21:12;;;;;;;8.07;4.15;;;3.70;99.90;;;3.42;100.00;101794.69;5243233;28;20072;-45
2024/01/13 09:23:44;;;;;;;14.32;5.32;;;3.70;99.90;;;3.42;100.00;101810.16;5238752;28;20514;-45
2024/01/13 09:26:17;;;;;;;8.45;4.72;;;3.70;99.90;;;3.43;100.00;101822.28;5241565;28;20045;-46
2024/01/13 09:28:49;;;;;;;10.40;6.03;;;3.70;99.90;;;3.45;100.00;101830.13;5233501;28;20345;-47
2024/01/13 09:31:23;;;;;;;9.93;5.22;;;3.70;99.90;;;3.48;100.00;101815.81;5230656;28;20106;-46
2024/01/13 09:33:56;;;;;;;7.82;4.50;;;3.70;99.90;;;3.49;100.00;101820.19;5249819;28;20044;-46
2024/01/13 09:36:35;;;;;;;12.32;5.97;;;3.70;99.90;;;3.51;100.00;101822.88;5248210;28;20437;-47
2024/01/13 09:39:10;;;;;;;12.43;6.13;;;3.70;99.90;;;3.52;100.00;101820.44;5249319;28;20140;-46
2024/01/13 09:41:45;;;;;;;11.10;4.72;;;3.70;99.90;;;3.55;100.00;101812.03;5239279;28;20037;-46
2024/01/13 09:44:23;;;;;;;10.18;3.85;;;3.80;99.90;;;3.60;100.00;101815.88;5253200;28;20044;-48
2024/01/13 09:46:59;;;;;;;8.70;4.68;;;3.80;99.90;;;3.60;100.00;101825.31;5247382;28;20396;-46
2024/01/13 09:49:32;;;;;;;10.20;4.53;;;3.80;99.90;;;3.62;100.00;101827.22;5232032;28;20047;-46
2024/01/13 09:52:06;;;;;;;7.43;4.00;;;3.90;99.90;;;3.64;100.00;101825.66;5235157;28;20059;-46
2024/01/13 09:54:42;;;;;;;8.20;3.65;;;3.80;99.90;;;3.68;100.00;101819.06;5233031;28;20106;-46
2024/01/13 09:57:15;;;;;;;8.77;3.83;;;3.90;99.90;;;3.75;100.00;101816.19;5242808;28;20049;-51
2024/01/13 09:59:48;;;;;;;7.93;3.47;;;4.00;99.90;;;3.80;100.00;101830.34;5236263;28;20052;-46
2024/01/13 10:02:25;;;;;;;7.25;3.88;;;4.00;99.90;;;3.80;100.00;101838.09;5250718;28;20132;-46
2024/01/13 10:04:57;;;;;;;11.10;4.20;;;4.00;99.90;;;3.78;100.00;101826.72;5234606;28;20052;-46
2024/01/13 10:07:35;;;;;;;14.20;4.70;;;4.00;99.90;;;3.76;100.00;101823.13;5243748;28;20717;-46
2024/01/13 10:10:09;;;;;;;7.07;2.90;;;4.00;99.90;;;3.74;100.00;101829.88;5234709;28;20045;-47
2024/01/13 10:12:44;;;;;;;4.75;2.63;;;4.00;99.90;;;4.19;100.00;101826.47;5251731;28;20051;-46
2024/01/13 10:15:18;;;;;;;9.52;3.97;;;4.30;99.90;;;4.30;100.00;101821.34;5247878;28;20040;-47
2024/01/13 10:17:54;;;;;;;10.50;4.40;;;4.40;99.90;;;4.22;100.00;101816.38;5242742;28;20140;-46
2024/01/13 10:20:30;;;;;;;10.65;4.10;;;4.40;99.90;;;4.13;100.00;101820.84;5247649;28;20546;-46
2024/01/13 10:23:03;;;;;;;8.07;3.97;;;4.40;99.90;;;4.05;100.00;101822.84;5239481;28;20487;-46
2024/01/13 10:25:36;;;;;;;10.50;4.50;;;4.40;99.90;;;3.99;100.00;101812.94;5249217;28;20130;-46
2024/01/13 10:28:09;;;;;;;9.80;3.42;;;4.30;99.90;;;3.95;100.00;101818.63;5244935;28;20106;-46
2024/01/13 10:30:42;;;;;;;10.02;3.83;;;4.20;99.90;;;3.93;100.00;101812.47;5249328;28;20048;-46
2024/01/13 10:33:17;;;;;;;5.97;3.00;;;4.20;99.90;;;3.90;100.00;101812.19;5250288;28;20545;-46
2024/01/13 10:35:49;;;;;;;10.10;3.75;;;4.10;99.90;;;3.87;100.00;101809.41;5237515;28;20052;-47
2024/01/13 10:38:21;;;;;;;8.57;3.17;;;4.10;99.90;;;3.87;100.00;101811.09;5247275;28;20044;-46
2024/01/13 10:40:54;;;;;;;7.50;3.22;;;4.10;99.90;;;3.85;100.00;101810.03;5242095;28;20547;-46